Terminal Aerodrome Forecast
Issued by NWS Pueblo, CO

Home | Current Version | Previous Version | Text Only | Print | Product List | Glossary On
Versions: 1 2 3 4 5 6 7 8 9 10 11 12 13 14 15 16 17 18 19 20 21 22 23 24 25
000
FTUS45 KPUB 211720
TAFALS
TAF
KALS 211720Z 2118/2218 VRB06KT P6SM SKC
     FM212000 20010KT P6SM SCT100 SCT200
     FM220300 31008KT P6SM SCT100 BKN200
     FM220700 VRB05KT P6SM SCT080 BKN130
     FM221700 19008KT P6SM VCTS BKN070CB OVC100=

USA.gov is the U.S. government's official web portal to all federal, state and local government web resources and services.